Time;durP1;ratioP1;P1;durP2;ratioP2;P2;SDS_P1;SDS_P2;PMS_P1;PMS_P2;Temp;Humidity;BMP_temperature;BMP_pressure;BME280_temperature;BME280_humidity;BME280_pressure;Samples;Min_cycle;Max_cycle;Signal;HPM_P1;HPM_P2
2023/04/12 00:02:13;;;;;;;7.32;1.20;;;10.30;99.90;;;;;;4952465;29;20074;-68
2023/04/12 00:04:40;;;;;;;2.22;0.60;;;10.30;99.90;;;;;;4948026;28;20035;-68
2023/04/12 00:07:08;;;;;;;2.03;0.45;;;10.40;99.90;;;;;;4951051;29;20062;-68
2023/04/12 00:09:36;;;;;;;1.75;0.90;;;10.40;99.90;;;;;;4947676;29;20059;-68
2023/04/12 00:12:03;;;;;;;2.90;1.35;;;10.40;99.90;;;;;;4952773;29;20027;-69
2023/04/12 00:14:29;;;;;;;2.03;1.02;;;10.40;99.90;;;;;;4948657;28;20487;-69
2023/04/12 00:16:55;;;;;;;9.90;2.45;;;10.40;99.90;;;;;;4952010;28;20046;-69
2023/04/12 00:19:20;;;;;;;3.00;1.00;;;10.20;99.90;;;;;;4947938;28;20114;-69
2023/04/12 00:21:46;;;;;;;8.80;1.10;;;10.20;99.90;;;;;;4950609;29;20542;-68
2023/04/12 00:24:12;;;;;;;2.20;0.95;;;10.20;99.90;;;;;;4948230;29;20031;-69
2023/04/12 00:26:38;;;;;;;1.77;0.70;;;10.10;99.90;;;;;;4952118;29;20082;-69
2023/04/12 00:29:04;;;;;;;2.08;1.05;;;10.00;99.90;;;;;;4946617;28;20415;-69
2023/04/12 00:31:29;;;;;;;1.70;0.75;;;10.00;99.90;;;;;;4951526;29;20046;-69
2023/04/12 00:33:55;;;;;;;1.65;0.65;;;9.90;99.90;;;;;;4948203;29;20024;-69
2023/04/12 00:36:21;;;;;;;2.80;1.80;;;9.90;99.90;;;;;;4951978;28;20023;-69
2023/04/12 00:38:47;;;;;;;2.55;1.15;;;9.80;99.90;;;;;;4947870;29;20071;-69
2023/04/12 00:41:14;;;;;;;1.30;0.80;;;9.90;99.90;;;;;;4951558;29;20023;-69
2023/04/12 00:43:42;;;;;;;1.17;0.68;;;9.80;99.90;;;;;;4948920;28;20031;-69
2023/04/12 00:46:11;;;;;;;1.83;0.80;;;9.70;99.90;;;;;;4944405;29;20023;-69
2023/04/12 00:48:37;;;;;;;2.53;0.80;;;9.80;99.90;;;;;;4948643;28;20373;-68
2023/04/12 00:51:06;;;;;;;3.35;0.88;;;9.70;99.90;;;;;;4951464;29;20391;-68
2023/04/12 00:53:32;;;;;;;2.15;1.13;;;9.70;99.90;;;;;;4949639;29;20039;-68
2023/04/12 00:55:58;;;;;;;1.38;0.85;;;9.70;99.90;;;;;;4966435;28;20121;-69
2023/04/12 00:58:24;;;;;;;7.05;1.48;;;9.80;99.90;;;;;;4954029;29;20132;-69
2023/04/12 01:00:51;;;;;;;2.70;1.40;;;9.80;99.90;;;;;;4952612;29;20105;-70
2023/04/12 01:03:21;;;;;;;4.07;1.33;;;9.90;99.90;;;;;;4954987;29;20411;-69
2023/04/12 01:06:33;;;;;;;4.50;1.00;;;9.90;99.90;;;;;;4962916;28;20027;-69
2023/04/12 01:09:45;;;;;;;2.00;0.82;;;9.70;99.90;;;;;;4957467;28;20154;-69
2023/04/12 01:12:53;;;;;;;2.38;0.90;;;9.70;99.90;;;;;;4954767;28;20451;-69
2023/04/12 01:15:23;;;;;;;3.28;1.08;;;9.70;99.90;;;;;;4952808;28;20395;-68
2023/04/12 01:17:56;;;;;;;3.55;2.30;;;9.50;99.90;;;;;;4954288;29;20031;-70
2023/04/12 01:20:30;;;;;;;8.50;0.90;;;9.30;99.90;;;;;;4950945;29;20054;-69
2023/04/12 01:23:07;;;;;;;3.25;0.98;;;9.20;99.90;;;;;;4954021;29;20034;-69
2023/04/12 01:25:42;;;;;;;2.67;0.98;;;9.20;99.90;;;;;;4950790;29;20118;-69
2023/04/12 01:28:12;;;;;;;2.90;1.20;;;9.10;99.90;;;;;;4935597;29;20042;-69
2023/04/12 01:30:40;;;;;;;2.95;0.52;;;9.00;99.90;;;;;;4937570;29;20076;-68
2023/04/12 01:33:11;;;;;;;0.95;0.52;;;9.00;99.90;;;;;;4954174;28;20086;-69
2023/04/12 01:35:41;;;;;;;6.13;1.10;;;9.00;99.90;;;;;;4935021;29;20125;-69
2023/04/12 01:38:08;;;;;;;1.23;0.70;;;9.00;99.90;;;;;;4950787;29;20024;-68
2023/04/12 01:40:35;;;;;;;4.93;1.20;;;9.00;99.90;;;;;;4929923;29;20031;-68
2023/04/12 01:43:10;;;;;;;4.47;0.95;;;9.00;99.90;;;;;;4953007;29;20034;-68
2023/04/12 01:45:38;;;;;;;1.40;0.43;;;8.90;99.90;;;;;;4953560;28;20031;-68
2023/04/12 01:48:11;;;;;;;1.60;0.93;;;8.80;99.90;;;;;;4953672;28;20395;-69
2023/04/12 01:51:04;;;;;;;1.38;1.02;;;8.80;99.90;;;;;;4951372;28;20035;-69
2023/04/12 01:54:09;;;;;;;0.90;0.63;;;8.70;99.90;;;;;;4935332;29;20044;-69
2023/04/12 01:56:37;;;;;;;5.43;1.85;;;8.60;99.90;;;;;;4949371;28;20447;-69
2023/04/12 01:59:04;;;;;;;1.10;0.57;;;8.60;99.90;;;;;;4949103;29;20023;-69
2023/04/12 02:01:30;;;;;;;5.97;0.82;;;8.60;99.90;;;;;;4953555;29;20419;-70
2023/04/12 02:04:01;;;;;;;1.85;0.50;;;8.60;99.90;;;;;;4933528;29;20032;-69
2023/04/12 02:06:27;;;;;;;1.77;0.77;;;8.50;99.90;;;;;;4953345;28;20038;-69
2023/04/12 02:09:02;;;;;;;2.05;0.80;;;8.50;99.90;;;;;;4948617;28;20046;-69
2023/04/12 02:11:28;;;;;;;1.15;0.75;;;8.50;99.90;;;;;;4952710;28;20038;-69
2023/04/12 02:13:54;;;;;;;1.67;0.93;;;8.30;99.90;;;;;;4953459;29;20047;-68
2023/04/12 02:16:21;;;;;;;2.47;1.00;;;8.40;99.90;;;;;;4953787;28;20030;-68
2023/04/12 02:18:49;;;;;;;3.20;2.17;;;8.30;99.90;;;;;;4949771;29;20043;-69
2023/04/12 02:21:15;;;;;;;2.30;1.08;;;8.30;99.90;;;;;;4953752;28;20106;-69
2023/04/12 02:23:44;;;;;;;0.73;0.40;;;8.20;99.90;;;;;;4949337;28;20162;-70
2023/04/12 02:26:10;;;;;;;4.00;1.10;;;8.20;99.90;;;;;;4953817;28;20028;-69
2023/04/12 02:28:39;;;;;;;8.70;1.52;;;8.10;99.90;;;;;;4951387;28;20104;-70
2023/04/12 02:31:08;;;;;;;7.53;1.50;;;8.10;99.90;;;;;;4953339;29;20464;-70
2023/04/12 02:33:34;;;;;;;3.70;1.67;;;8.10;99.90;;;;;;4950934;29;20085;-70
2023/04/12 02:36:03;;;;;;;3.55;1.05;;;8.00;99.90;;;;;;4952707;29;20027;-69
2023/04/12 02:38:30;;;;;;;2.45;1.63;;;8.00;99.90;;;;;;4951437;28;20434;-69
2023/04/12 02:40:55;;;;;;;2.85;1.10;;;8.00;99.90;;;;;;4952140;29;20081;-69
2023/04/12 02:43:21;;;;;;;7.13;2.08;;;8.00;99.90;;;;;;4952273;28;20114;-68
2023/04/12 02:45:48;;;;;;;1.85;0.95;;;8.00;99.90;;;;;;4965581;28;20046;-70
2023/04/12 02:48:13;;;;;;;3.30;0.95;;;8.00;99.90;;;;;;4951616;28;20065;-69
2023/04/12 02:50:39;;;;;;;4.03;1.10;;;8.00;99.90;;;;;;4949731;29;20091;-69
2023/04/12 02:53:05;;;;;;;6.50;0.93;;;8.00;99.90;;;;;;4953290;29;20031;-69
2023/04/12 02:55:31;;;;;;;2.97;1.60;;;8.00;99.90;;;;;;4949454;29;20042;-70
2023/04/12 02:57:57;;;;;;;1.60;0.93;;;7.90;99.90;;;;;;4953485;29;20027;-69
2023/04/12 03:00:23;;;;;;;2.60;1.25;;;8.00;99.90;;;;;;4949160;29;20031;-69
2023/04/12 03:02:51;;;;;;;9.80;1.10;;;7.90;99.90;;;;;;4953235;29;20031;-69
2023/04/12 03:05:18;;;;;;;1.70;0.80;;;7.90;99.90;;;;;;4949378;29;20090;-70
2023/04/12 03:07:43;;;;;;;1.98;1.05;;;8.00;99.90;;;;;;4951771;28;20042;-70
2023/04/12 03:10:13;;;;;;;1.00;0.52;;;8.00;99.90;;;;;;4948672;29;20038;-70
2023/04/12 03:12:38;;;;;;;1.90;0.85;;;7.90;99.90;;;;;;4952915;28;20483;-69
2023/04/12 03:15:05;;;;;;;1.48;0.80;;;7.90;99.90;;;;;;4952102;28;20507;-69
2023/04/12 03:17:31;;;;;;;3.83;1.27;;;7.90;99.90;;;;;;4953299;28;20033;-69
2023/04/12 03:20:06;;;;;;;5.78;1.25;;;8.00;99.90;;;;;;4968326;23;20054;-68
2023/04/12 03:22:32;;;;;;;1.60;0.88;;;7.90;99.90;;;;;;4972524;28;20079;-68
2023/04/12 03:24:58;;;;;;;3.33;1.10;;;7.90;99.90;;;;;;4964845;28;20491;-68
2023/04/12 03:27:24;;;;;;;4.47;1.20;;;8.00;99.90;;;;;;4972412;28;20027;-68
2023/04/12 03:29:51;;;;;;;2.92;1.35;;;7.90;99.90;;;;;;4965872;28;20059;-68
2023/04/12 03:32:16;;;;;;;5.80;1.10;;;7.90;99.90;;;;;;4972321;28;20505;-68
2023/04/12 03:34:44;;;;;;;2.97;0.80;;;8.00;99.90;;;;;;4965785;28;20039;-68
2023/04/12 03:37:10;;;;;;;1.52;0.85;;;8.00;99.90;;;;;;4967421;28;20042;-67
2023/04/12 03:39:35;;;;;;;1.85;1.05;;;8.00;99.90;;;;;;4965634;28;20027;-68
2023/04/12 03:42:01;;;;;;;9.07;1.80;;;8.00;99.90;;;;;;4969998;28;20023;-68
2023/04/12 03:44:27;;;;;;;2.30;1.17;;;8.00;99.90;;;;;;4967910;28;20495;-68
2023/04/12 03:46:53;;;;;;;1.92;0.93;;;8.00;99.90;;;;;;4970334;28;20043;-68
2023/04/12 03:49:20;;;;;;;2.05;0.95;;;8.00;99.90;;;;;;4969107;28;20107;-68
2023/04/12 03:51:49;;;;;;;1.90;1.15;;;8.00;99.90;;;;;;4965965;28;20041;-68
2023/04/12 03:54:15;;;;;;;5.07;1.15;;;8.00;99.90;;;;;;4969955;28;20129;-68
2023/04/12 03:56:41;;;;;;;0.98;0.47;;;7.90;99.90;;;;;;4971398;28;20551;-68
2023/04/12 03:59:07;;;;;;;3.53;1.50;;;8.00;99.90;;;;;;4967688;28;20022;-68
2023/04/12 04:01:36;;;;;;;1.90;0.80;;;8.00;99.90;;;;;;4970676;28;20027;-68
2023/04/12 04:04:02;;;;;;;2.60;1.02;;;8.00;99.90;;;;;;4966331;28;20078;-68
2023/04/12 04:06:28;;;;;;;1.42;0.57;;;8.00;99.90;;;;;;4965326;28;20085;-68
2023/04/12 04:08:56;;;;;;;1.23;1.02;;;8.00;99.90;;;;;;4970868;28;20035;-68
2023/04/12 04:11:23;;;;;;;1.42;0.90;;;8.00;99.90;;;;;;4965973;28;20081;-68
2023/04/12 04:13:49;;;;;;;1.05;0.68;;;8.00;99.90;;;;;;4971199;28;20066;-68
2023/04/12 04:16:15;;;;;;;5.38;1.67;;;8.00;99.90;;;;;;4970899;28;20495;-68
2023/04/12 04:18:40;;;;;;;1.55;0.73;;;8.00;99.90;;;;;;4971010;28;20035;-68
2023/04/12 04:21:07;;;;;;;2.30;0.82;;;8.00;99.90;;;;;;4970610;28;20356;-68
2023/04/12 04:23:39;;;;;;;2.08;0.80;;;8.00;99.90;;;;;;4986142;28;20453;-68
2023/04/12 04:26:10;;;;;;;1.75;0.90;;;8.00;99.90;;;;;;4970695;28;20038;-68
2023/04/12 04:28:46;;;;;;;2.00;0.68;;;8.00;99.90;;;;;;4970908;28;20027;-67
2023/04/12 04:31:12;;;;;;;3.10;0.85;;;8.00;99.90;;;;;;4970964;28;20038;-68
2023/04/12 04:33:38;;;;;;;1.75;0.65;;;8.00;99.90;;;;;;4974853;28;20057;-65
2023/04/12 04:36:08;;;;;;;2.88;1.02;;;8.00;99.90;;;;;;4974770;28;20027;-66
2023/04/12 04:38:35;;;;;;;5.07;1.20;;;8.00;99.90;;;;;;4976632;28;20099;-67
2023/04/12 04:41:02;;;;;;;1.15;0.60;;;8.00;99.90;;;;;;4974260;28;20109;-66
2023/04/12 04:43:29;;;;;;;1.83;0.77;;;8.00;99.90;;;;;;4974739;28;20110;-66
2023/04/12 04:45:56;;;;;;;1.40;0.75;;;8.00;99.90;;;;;;4974491;28;20031;-67
2023/04/12 04:48:23;;;;;;;7.25;0.73;;;8.00;99.90;;;;;;4975598;28;20058;-67
2023/04/12 04:50:53;;;;;;;1.70;0.77;;;8.00;99.90;;;;;;4973919;28;20395;-66
2023/04/12 04:53:21;;;;;;;4.68;0.60;;;8.00;99.90;;;;;;4974799;28;20038;-67
2023/04/12 04:55:47;;;;;;;5.88;0.73;;;8.00;99.90;;;;;;4951291;28;20047;-67
2023/04/12 04:58:14;;;;;;;1.52;0.80;;;8.00;99.90;;;;;;4974837;28;20035;-65
2023/04/12 05:00:43;;;;;;;1.08;0.68;;;8.00;99.90;;;;;;4973897;28;20030;-67
2023/04/12 05:03:10;;;;;;;1.75;0.65;;;8.00;99.90;;;;;;4973546;28;20031;-66
2023/04/12 05:05:36;;;;;;;1.23;0.52;;;8.00;99.90;;;;;;4974301;28;20112;-67
2023/04/12 05:08:02;;;;;;;3.25;0.95;;;8.00;99.90;;;;;;4972764;28;20035;-66
2023/04/12 05:10:28;;;;;;;0.73;0.50;;;8.00;99.90;;;;;;4973855;28;20459;-68
2023/04/12 05:12:53;;;;;;;0.90;0.60;;;8.00;99.90;;;;;;4972511;28;20058;-67
2023/04/12 05:15:20;;;;;;;1.85;0.68;;;8.00;99.90;;;;;;4973725;28;20043;-67
2023/04/12 05:17:45;;;;;;;7.32;0.93;;;8.00;99.90;;;;;;4974011;28;20130;-66
2023/04/12 05:20:11;;;;;;;0.90;0.60;;;8.00;99.90;;;;;;4966941;28;20149;-66
2023/04/12 05:22:37;;;;;;;0.90;0.40;;;8.00;99.90;;;;;;4974149;28;20553;-66
2023/04/12 05:25:03;;;;;;;10.20;1.42;;;8.10;99.90;;;;;;4967976;28;20038;-67
2023/04/12 05:27:29;;;;;;;1.20;0.88;;;8.10;99.90;;;;;;4973312;28;20501;-66
2023/04/12 05:29:58;;;;;;;2.78;0.98;;;8.10;99.90;;;;;;4958532;28;20074;-66
2023/04/12 05:32:25;;;;;;;1.45;0.88;;;8.10;99.90;;;;;;4966466;28;20426;-66
2023/04/12 05:34:51;;;;;;;3.13;0.85;;;8.10;99.90;;;;;;4955721;28;20127;-66
2023/04/12 05:37:17;;;;;;;7.72;1.77;;;8.10;99.90;;;;;;4962608;28;20093;-67
2023/04/12 05:39:43;;;;;;;1.67;0.95;;;8.10;99.90;;;;;;4961193;28;20030;-67
2023/04/12 05:42:08;;;;;;;5.90;1.33;;;8.10;99.90;;;;;;4964513;28;20037;-68
2023/04/12 05:44:38;;;;;;;4.00;1.02;;;8.10;99.90;;;;;;4960725;28;20031;-66
2023/04/12 05:47:04;;;;;;;2.30;1.10;;;8.20;99.90;;;;;;4972425;28;20069;-67
2023/04/12 05:49:30;;;;;;;1.70;1.08;;;8.10;99.90;;;;;;4973505;28;20117;-65
2023/04/12 05:51:57;;;;;;;1.88;1.05;;;8.20;99.90;;;;;;4969545;28;20038;-66
2023/04/12 05:54:24;;;;;;;4.60;1.30;;;8.20;99.90;;;;;;4973893;28;20113;-65
2023/04/12 05:56:53;;;;;;;2.75;0.63;;;8.20;99.90;;;;;;4983772;28;20043;-65
2023/04/12 05:59:19;;;;;;;1.70;0.95;;;8.20;99.90;;;;;;4971984;28;20356;-66
2023/04/12 06:01:45;;;;;;;3.63;1.20;;;8.30;99.90;;;;;;4970389;28;20483;-66
2023/04/12 06:04:11;;;;;;;2.42;1.10;;;8.30;99.90;;;;;;4972288;28;20497;-65
2023/04/12 06:06:37;;;;;;;2.63;1.30;;;8.30;99.90;;;;;;4968033;28;20031;-65
2023/04/12 06:09:05;;;;;;;1.15;0.47;;;8.30;99.90;;;;;;4971565;28;20031;-66
2023/04/12 06:11:34;;;;;;;1.65;0.73;;;8.40;99.90;;;;;;4968040;28;20506;-66
2023/04/12 06:14:00;;;;;;;1.27;0.80;;;8.40;99.90;;;;;;4973250;28;20039;-66
2023/04/12 06:16:26;;;;;;;7.28;1.67;;;8.40;99.90;;;;;;4969223;28;20115;-66
2023/04/12 06:18:52;;;;;;;3.28;0.85;;;8.40;99.90;;;;;;4972584;28;20051;-65
2023/04/12 06:21:19;;;;;;;0.93;0.80;;;8.50;99.90;;;;;;4964646;28;20062;-66
2023/04/12 06:23:44;;;;;;;1.35;0.90;;;8.50;99.90;;;;;;4971525;28;20063;-66
2023/04/12 06:26:10;;;;;;;1.77;0.82;;;8.50;99.90;;;;;;4972501;28;20062;-66
2023/04/12 06:28:36;;;;;;;2.50;0.88;;;8.50;99.90;;;;;;4972941;28;20026;-66
2023/04/12 06:31:03;;;;;;;1.48;0.75;;;8.60;99.90;;;;;;4972081;28;20042;-67
2023/04/12 06:33:29;;;;;;;1.40;0.60;;;8.60;99.90;;;;;;4970364;28;20039;-66
2023/04/12 06:35:54;;;;;;;3.72;0.98;;;8.60;99.90;;;;;;4971195;28;20023;-66
2023/04/12 06:38:20;;;;;;;2.53;0.95;;;8.70;99.90;;;;;;4972615;28;20027;-66
2023/04/12 06:40:46;;;;;;;6.47;0.98;;;8.70;99.90;;;;;;4971874;28;20041;-66
2023/04/12 06:43:19;;;;;;;2.85;1.30;;;8.70;99.90;;;;;;4972682;28;20383;-66
2023/04/12 06:45:45;;;;;;;6.28;0.77;;;8.70;99.90;;;;;;4972320;28;20119;-66
2023/04/12 06:48:11;;;;;;;0.82;0.50;;;8.80;99.90;;;;;;4972444;28;20114;-67
2023/04/12 06:50:36;;;;;;;1.95;0.82;;;8.80;99.90;;;;;;4971999;28;20146;-67
2023/04/12 06:53:02;;;;;;;2.38;1.30;;;8.80;99.90;;;;;;4972263;28;20403;-66
2023/04/12 06:55:28;;;;;;;1.55;0.73;;;8.80;99.90;;;;;;4971314;28;20114;-66
2023/04/12 06:57:54;;;;;;;1.48;0.80;;;8.80;99.90;;;;;;4972167;28;20114;-66
2023/04/12 07:00:20;;;;;;;1.10;0.93;;;8.80;99.90;;;;;;4971825;28;20105;-66
2023/04/12 07:02:46;;;;;;;5.00;1.42;;;8.80;99.90;;;;;;4972040;28;20035;-66
2023/04/12 07:05:13;;;;;;;1.13;0.70;;;8.90;99.90;;;;;;4972017;28;20753;-66
2023/04/12 07:07:39;;;;;;;1.30;0.80;;;8.90;99.90;;;;;;4972097;28;20105;-66
2023/04/12 07:10:06;;;;;;;3.45;0.88;;;8.90;99.90;;;;;;4971826;28;20110;-66
2023/04/12 07:12:32;;;;;;;2.88;0.85;;;8.90;99.90;;;;;;4971940;28;20414;-66
2023/04/12 07:14:58;;;;;;;0.77;0.45;;;8.90;99.90;;;;;;4971586;28;20050;-66
2023/04/12 07:17:25;;;;;;;3.13;1.52;;;9.00;99.90;;;;;;4972119;28;20031;-66
2023/04/12 07:19:53;;;;;;;1.50;0.50;;;9.00;99.90;;;;;;4969757;28;20113;-66
2023/04/12 07:22:20;;;;;;;1.92;1.00;;;9.00;99.90;;;;;;4970966;28;20522;-66
2023/04/12 07:24:46;;;;;;;1.85;1.10;;;9.00;99.90;;;;;;4970160;28;20117;-66
2023/04/12 07:27:11;;;;;;;1.73;0.80;;;9.00;99.90;;;;;;4971857;28;20118;-66
2023/04/12 07:29:37;;;;;;;1.73;1.00;;;9.00;99.90;;;;;;4971069;28;20034;-66
2023/04/12 07:32:03;;;;;;;1.33;0.80;;;9.00;99.90;;;;;;4971655;28;20054;-66
2023/04/12 07:34:29;;;;;;;3.92;1.30;;;9.00;99.90;;;;;;4971274;28;20093;-66
2023/04/12 07:36:55;;;;;;;0.65;0.60;;;9.10;99.90;;;;;;4971728;28;20073;-66
2023/04/12 07:39:21;;;;;;;2.25;1.08;;;9.10;99.90;;;;;;4971027;28;20054;-66
2023/04/12 07:41:48;;;;;;;3.38;1.27;;;9.10;99.90;;;;;;4971635;28;20051;-66
2023/04/12 07:44:14;;;;;;;4.07;0.50;;;9.20;99.90;;;;;;4969605;28;20049;-66
2023/04/12 07:46:40;;;;;;;1.75;0.73;;;9.20;99.90;;;;;;4971586;28;20042;-66
2023/04/12 07:49:09;;;;;;;1.85;1.15;;;9.20;99.90;;;;;;4970935;28;20115;-67
2023/04/12 07:51:35;;;;;;;0.75;0.60;;;9.30;99.90;;;;;;4971614;28;20072;-66
2023/04/12 07:54:02;;;;;;;3.33;1.27;;;9.30;99.90;;;;;;4970685;28;20137;-66
2023/04/12 07:56:28;;;;;;;0.73;0.47;;;9.30;99.90;;;;;;4970164;28;20027;-63
2023/04/12 07:58:54;;;;;;;2.67;1.30;;;9.30;99.90;;;;;;4970714;28;20031;-66
2023/04/12 08:01:20;;;;;;;4.45;0.85;;;9.30;99.90;;;;;;4971396;28;20061;-66
2023/04/12 08:03:46;;;;;;;1.80;0.90;;;9.30;99.90;;;;;;4969504;28;20035;-66
2023/04/12 08:06:11;;;;;;;1.98;0.90;;;9.30;99.90;;;;;;4970161;28;20498;-66
2023/04/12 08:08:37;;;;;;;1.70;0.65;;;9.40;99.90;;;;;;4970883;28;20073;-66
2023/04/12 08:11:05;;;;;;;1.05;0.68;;;9.40;99.90;;;;;;4970748;28;20054;-66
2023/04/12 08:13:32;;;;;;;1.48;0.68;;;9.50;99.90;;;;;;4971431;28;20023;-66
2023/04/12 08:15:58;;;;;;;2.28;0.65;;;9.60;99.90;;;;;;4969380;28;20038;-65
2023/04/12 08:18:24;;;;;;;1.55;0.70;;;9.60;99.90;;;;;;4971313;28;20035;-66
2023/04/12 08:20:49;;;;;;;1.83;0.80;;;9.60;99.90;;;;;;4970544;28;20169;-66
2023/04/12 08:23:15;;;;;;;1.13;0.68;;;9.60;99.90;;;;;;4971362;28;20510;-66
2023/04/12 08:25:41;;;;;;;2.67;0.85;;;9.70;99.90;;;;;;4970981;28;20874;-65
2023/04/12 08:28:07;;;;;;;11.60;0.93;;;9.80;99.90;;;;;;4971132;28;20034;-66
2023/04/12 08:30:33;;;;;;;1.30;0.63;;;9.80;99.90;;;;;;4970913;28;20111;-66
2023/04/12 08:32:59;;;;;;;1.75;1.00;;;9.80;99.90;;;;;;4971278;28;20766;-66
2023/04/12 08:35:25;;;;;;;1.63;0.88;;;9.90;99.90;;;;;;4970593;28;20027;-66
2023/04/12 08:37:51;;;;;;;4.40;1.10;;;10.00;99.90;;;;;;4970949;28;20479;-65
2023/04/12 08:40:17;;;;;;;3.30;0.95;;;10.00;99.90;;;;;;4970488;28;20035;-66
2023/04/12 08:42:43;;;;;;;5.93;0.70;;;10.10;99.90;;;;;;4970922;28;20030;-66
2023/04/12 08:45:11;;;;;;;1.27;0.70;;;10.20;99.90;;;;;;4970411;28;20038;-66
2023/04/12 08:47:42;;;;;;;3.30;0.95;;;10.30;99.90;;;;;;4970980;28;20046;-66
2023/04/12 08:50:12;;;;;;;;;;;10.40;99.90;;;;;;4963636;28;20030;-66
2023/04/12 08:52:38;;;;;;;2.88;0.90;;;10.40;99.90;;;;;;4970037;28;19921;-66
2023/04/12 08:55:06;;;;;;;1.33;0.77;;;10.40;99.90;;;;;;4968376;28;20027;-66
2023/04/12 08:57:33;;;;;;;1.75;0.80;;;10.40;99.90;;;;;;4970026;28;20098;-66
2023/04/12 09:00:00;;;;;;;2.80;0.55;;;10.40;99.90;;;;;;4968890;28;20030;-66
2023/04/12 09:02:27;;;;;;;1.92;0.88;;;10.30;99.90;;;;;;4970973;28;20398;-66
2023/04/12 09:04:53;;;;;;;3.55;1.67;;;10.30;99.90;;;;;;4968832;28;20027;-65
2023/04/12 09:07:22;;;;;;;1.65;0.85;;;10.40;99.90;;;;;;4970627;28;20033;-66
2023/04/12 09:09:49;;;;;;;7.78;2.33;;;10.40;99.90;;;;;;4952946;28;20059;-66
2023/04/12 09:12:17;;;;;;;1.63;0.85;;;10.40;99.90;;;;;;4951363;28;20126;-66
2023/04/12 09:14:43;;;;;;;4.95;1.15;;;10.40;99.90;;;;;;4968791;28;20089;-66
2023/04/12 09:17:27;;;;;;;2.28;1.25;;;10.40;99.90;;;;;;4971942;28;20030;-66
2023/04/12 09:19:56;;;;;;;1.05;0.70;;;10.40;99.90;;;;;;4972355;28;20465;-66
2023/04/12 09:22:38;;;;;;;1.70;0.65;;;10.50;99.90;;;;;;4972073;28;20027;-65
2023/04/12 09:25:05;;;;;;;1.52;0.90;;;10.50;99.90;;;;;;4972375;28;20076;-66
2023/04/12 09:27:49;;;;;;;1.60;0.88;;;10.60;99.90;;;;;;4974067;28;20533;-66
2023/04/12 09:30:17;;;;;;;6.55;0.93;;;10.70;99.90;;;;;;4967742;28;20043;-66
2023/04/12 09:32:44;;;;;;;3.60;0.90;;;10.80;99.90;;;;;;4972695;28;20636;-66
2023/04/12 09:35:10;;;;;;;1.80;0.98;;;10.80;99.90;;;;;;4972088;28;20061;-66
2023/04/12 09:37:36;;;;;;;3.35;0.88;;;10.90;99.90;;;;;;4972632;28;20027;-66
2023/04/12 09:40:08;;;;;;;2.33;1.23;;;10.90;99.90;;;;;;4973130;28;20117;-66
2023/04/12 09:42:51;;;;;;;7.75;1.48;;;11.00;99.90;;;;;;4973875;28;20026;-66
2023/04/12 09:45:25;;;;;;;6.50;1.27;;;11.00;99.90;;;;;;4968006;28;20505;-66
2023/04/12 09:47:51;;;;;;;4.97;1.08;;;11.10;99.90;;;;;;4972714;28;20035;-66
2023/04/12 09:50:23;;;;;;;1.92;1.17;;;11.10;99.90;;;;;;4971716;28;20038;-66
2023/04/12 09:52:50;;;;;;;5.90;1.33;;;11.10;99.90;;;;;;4973259;28;20034;-66
2023/04/12 09:55:17;;;;;;;3.15;1.38;;;11.10;99.90;;;;;;4973267;28;20509;-66
2023/04/12 09:57:44;;;;;;;1.77;0.95;;;11.10;99.90;;;;;;4955833;28;20034;-66
2023/04/12 10:00:18;;;;;;;3.00;1.27;;;11.10;99.90;;;;;;4972779;28;20126;-66
2023/04/12 10:02:50;;;;;;;1.55;0.95;;;11.10;99.90;;;;;;4972099;28;20023;-66
2023/04/12 10:05:19;;;;;;;3.90;1.65;;;11.10;99.90;;;;;;4971588;28;20042;-66
2023/04/12 10:07:46;;;;;;;3.22;1.15;;;11.10;99.90;;;;;;4972062;28;20043;-66
2023/04/12 10:10:17;;;;;;;3.78;1.30;;;11.10;99.90;;;;;;4972835;28;20514;-66
2023/04/12 10:12:44;;;;;;;;;;;11.10;99.90;;;;;;4973285;28;20085;-66
2023/04/12 10:15:12;;;;;;;5.60;1.65;;;11.20;99.90;;;;;;4971719;28;19922;-66
2023/04/12 10:18:05;;;;;;;2.65;1.25;;;11.20;99.90;;;;;;4973166;28;20022;-66
2023/04/12 10:20:31;;;;;;;3.30;1.27;;;11.30;99.90;;;;;;4970413;28;20037;-66
2023/04/12 10:22:58;;;;;;;7.50;1.73;;;11.20;99.90;;;;;;4973199;28;20386;-66
2023/04/12 10:25:26;;;;;;;4.20;2.13;;;11.20;99.90;;;;;;4972529;28;20035;-66
2023/04/12 10:27:52;;;;;;;2.63;1.30;;;11.20;99.90;;;;;;4972791;28;20034;-66
2023/04/12 10:30:27;;;;;;;4.28;1.48;;;11.30;99.90;;;;;;4970530;28;20035;-66
2023/04/12 10:33:01;;;;;;;3.47;1.45;;;11.30;99.90;;;;;;4972983;28;20114;-66
2023/04/12 10:35:28;;;;;;;2.67;1.40;;;11.30;99.90;;;;;;4972671;28;20042;-66
2023/04/12 10:38:00;;;;;;;2.95;1.33;;;11.30;99.90;;;;;;4972615;28;20031;-66
2023/04/12 10:40:27;;;;;;;5.25;1.05;;;11.30;99.90;;;;;;4954853;28;20062;-66
2023/04/12 10:43:30;;;;;;;10.80;1.55;;;11.30;99.90;;;;;;4972574;28;20460;-66
2023/04/12 10:45:56;;;;;;;2.65;1.23;;;11.40;99.90;;;;;;4972451;28;20514;-66
2023/04/12 10:48:51;;;;;;;2.45;1.27;;;11.40;99.90;;;;;;4972699;28;20101;-66
2023/04/12 10:51:27;;;;;;;2.75;1.65;;;11.50;99.90;;;;;;4966297;28;20439;-66
2023/04/12 10:54:14;;;;;;;5.55;1.88;;;11.50;99.90;;;;;;4976658;28;20035;-66
2023/04/12 10:56:42;;;;;;;3.25;1.45;;;11.50;99.90;;;;;;4972200;28;20026;-66
2023/04/12 10:59:13;;;;;;;2.47;1.35;;;11.50;99.90;;;;;;4954667;28;20483;-66
2023/04/12 11:01:40;;;;;;;7.10;1.55;;;11.50;99.90;;;;;;4972602;28;20023;-66
2023/04/12 11:04:21;;;;;;;8.68;2.38;;;11.60;99.90;;;;;;4971530;28;20550;-66
2023/04/12 11:06:55;;;;;;;2.05;1.00;;;11.70;99.90;;;;;;4970993;28;20494;-66
2023/04/12 11:09:32;;;;;;;4.60;1.15;;;11.80;99.90;;;;;;4969811;28;20490;-66
2023/04/12 11:12:14;;;;;;;4.75;1.02;;;11.80;99.90;;;;;;4972078;28;20041;-66
2023/04/12 11:14:51;;;;;;;6.32;1.00;;;11.90;99.90;;;;;;4968855;28;20026;-66
2023/04/12 11:17:16;;;;;;;1.88;1.08;;;12.00;99.90;;;;;;4970911;28;20627;-66
2023/04/12 11:19:45;;;;;;;2.35;1.17;;;12.10;99.90;;;;;;4969450;28;20027;-66
2023/04/12 11:22:16;;;;;;;5.18;2.13;;;12.10;99.90;;;;;;4971162;28;20039;-66
2023/04/12 11:24:44;;;;;;;2.67;1.70;;;12.10;99.90;;;;;;4970447;28;20030;-66
2023/04/12 11:27:10;;;;;;;3.60;1.20;;;11.90;99.90;;;;;;4971750;28;20129;-66
2023/04/12 11:29:36;;;;;;;2.03;1.20;;;12.00;99.90;;;;;;4969558;28;20026;-66
2023/04/12 11:32:04;;;;;;;2.13;1.10;;;12.00;99.90;;;;;;4971839;28;20030;-66
2023/04/12 11:34:35;;;;;;;2.03;1.23;;;12.00;99.90;;;;;;4971282;28;20077;-66
2023/04/12 11:37:08;;;;;;;3.28;1.33;;;11.90;99.90;;;;;;4971820;28;20027;-66
2023/04/12 11:39:37;;;;;;;2.80;1.23;;;12.00;99.90;;;;;;4965907;28;20038;-66
2023/04/12 11:42:03;;;;;;;3.47;1.30;;;12.20;99.90;;;;;;4953423;28;20050;-66
2023/04/12 11:44:32;;;;;;;1.67;0.95;;;12.30;99.90;;;;;;4969742;28;20054;-67
2023/04/12 11:46:58;;;;;;;2.60;1.23;;;12.20;99.90;;;;;;4954539;28;20037;-66
2023/04/12 11:49:24;;;;;;;3.08;1.35;;;12.10;99.90;;;;;;4969681;28;20065;-66
2023/04/12 11:52:03;;;;;;;1.83;1.17;;;12.10;99.90;;;;;;4971481;28;20042;-66
2023/04/12 11:54:30;;;;;;;6.22;1.17;;;12.20;99.90;;;;;;4970620;28;20027;-66
2023/04/12 11:56:57;;;;;;;2.83;1.20;;;12.20;99.90;;;;;;4970877;28;20031;-66
2023/04/12 11:59:33;;;;;;;3.70;1.33;;;12.40;99.90;;;;;;4969426;28;20042;-66
2023/04/12 12:02:04;;;;;;;2.58;0.95;;;12.40;99.90;;;;;;4970918;28;20029;-66
2023/04/12 12:04:31;;;;;;;3.90;1.23;;;12.40;99.90;;;;;;4969831;28;20027;-67
2023/04/12 12:06:57;;;;;;;5.13;1.08;;;12.50;99.90;;;;;;4970003;28;20364;-67
2023/04/12 12:09:25;;;;;;;0.90;0.70;;;12.50;99.90;;;;;;4967802;28;20106;-66
2023/04/12 12:11:51;;;;;;;2.50;1.02;;;12.40;99.90;;;;;;4970033;28;20027;-66
2023/04/12 12:14:22;;;;;;;2.35;0.80;;;12.50;99.90;;;;;;4969979;28;20027;-66
2023/04/12 12:16:56;;;;;;;4.03;0.98;;;12.50;99.90;;;;;;4969840;28;20042;-67
2023/04/12 12:19:37;;;;;;;7.20;0.98;;;12.60;99.90;;;;;;4969193;28;20062;-67
2023/04/12 12:22:20;;;;;;;5.03;1.33;;;12.50;99.90;;;;;;4968516;28;20022;-67
2023/04/12 12:24:58;;;;;;;3.13;1.23;;;12.70;99.90;;;;;;4968619;28;20035;-66
2023/04/12 12:27:29;;;;;;;6.53;1.15;;;12.70;99.90;;;;;;4971125;28;20511;-67
2023/04/12 12:30:00;;;;;;;5.93;1.58;;;12.80;99.90;;;;;;4970321;28;20047;-67
2023/04/12 12:32:31;;;;;;;2.00;1.10;;;13.00;99.90;;;;;;4970530;28;20015;-67
2023/04/12 12:34:57;;;;;;;0.82;0.43;;;13.10;99.90;;;;;;4971102;28;20326;-67
2023/04/12 12:37:27;;;;;;;1.02;0.57;;;13.00;99.90;;;;;;4971257;28;20034;-67
2023/04/12 12:40:30;;;;;;;1.02;0.73;;;13.00;99.90;;;;;;4970375;28;20034;-67
2023/04/12 12:42:55;;;;;;;2.03;1.13;;;13.00;99.90;;;;;;4970012;28;20450;-67
2023/04/12 12:45:24;;;;;;;2.78;0.80;;;13.00;99.90;;;;;;4970144;28;20101;-67
2023/04/12 12:47:53;;;;;;;1.65;0.95;;;12.90;99.90;;;;;;4969919;28;20034;-67
2023/04/12 12:50:23;;;;;;;2.55;1.15;;;12.80;99.90;;;;;;4970543;28;20041;-66
2023/04/12 12:52:50;;;;;;;8.95;1.48;;;12.80;99.90;;;;;;4935636;28;20543;-67
2023/04/12 12:55:17;;;;;;;5.57;2.75;;;12.70;99.90;;;;;;4956948;28;20054;-67
2023/04/12 12:57:45;;;;;;;1.38;0.77;;;12.70;99.90;;;;;;4973428;28;20023;-67
2023/04/12 13:00:15;;;;;;;2.55;1.45;;;12.60;99.90;;;;;;4972600;28;20083;-67
2023/04/12 13:02:42;;;;;;;0.45;0.40;;;12.60;99.90;;;;;;4973928;28;20114;-67